sensor_id;sensor_type;location;lat;lon;timestamp;P1;durP1;ratioP1;P2;durP2;ratioP2
29402;SDS011;16382;59.942;30.472;2023-03-01T00:01:08;6.32;;;0.70;;
29402;SDS011;16382;59.942;30.472;2023-03-01T00:03:39;1.13;;;0.57;;
29402;SDS011;16382;59.942;30.472;2023-03-01T00:06:06;5.45;;;0.80;;
29402;SDS011;16382;59.942;30.472;2023-03-01T00:08:34;0.98;;;0.50;;
29402;SDS011;16382;59.942;30.472;2023-03-01T00:11:04;6.05;;;1.05;;
29402;SDS011;16382;59.942;30.472;2023-03-01T00:16:03;2.22;;;0.52;;
29402;SDS011;16382;59.942;30.472;2023-03-01T00:18:31;0.95;;;0.35;;
29402;SDS011;16382;59.942;30.472;2023-03-01T00:20:59;2.40;;;0.63;;
29402;SDS011;16382;59.942;30.472;2023-03-01T00:23:27;2.83;;;0.50;;
29402;SDS011;16382;59.942;30.472;2023-03-01T00:25:54;5.03;;;0.68;;
29402;SDS011;16382;59.942;30.472;2023-03-01T00:28:23;1.13;;;0.60;;
29402;SDS011;16382;59.942;30.472;2023-03-01T00:30:51;0.93;;;0.30;;
29402;SDS011;16382;59.942;30.472;2023-03-01T00:33:18;1.23;;;0.82;;
29402;SDS011;16382;59.942;30.472;2023-03-01T00:35:46;3.97;;;0.80;;
29402;SDS011;16382;59.942;30.472;2023-03-01T00:38:14;1.60;;;0.60;;
29402;SDS011;16382;59.942;30.472;2023-03-01T00:40:41;1.30;;;0.30;;
29402;SDS011;16382;59.942;30.472;2023-03-01T00:43:09;1.20;;;0.57;;
29402;SDS011;16382;59.942;30.472;2023-03-01T00:45:37;3.53;;;0.75;;
29402;SDS011;16382;59.942;30.472;2023-03-01T00:48:05;1.75;;;0.65;;
29402;SDS011;16382;59.942;30.472;2023-03-01T00:50:33;7.40;;;1.05;;
29402;SDS011;16382;59.942;30.472;2023-03-01T00:53:01;1.40;;;0.70;;
29402;SDS011;16382;59.942;30.472;2023-03-01T00:55:30;3.92;;;0.70;;
29402;SDS011;16382;59.942;30.472;2023-03-01T00:57:58;1.63;;;0.50;;
29402;SDS011;16382;59.942;30.472;2023-03-01T01:00:26;3.08;;;0.90;;
29402;SDS011;16382;59.942;30.472;2023-03-01T01:02:54;1.52;;;0.70;;
29402;SDS011;16382;59.942;30.472;2023-03-01T01:05:22;2.33;;;0.60;;
29402;SDS011;16382;59.942;30.472;2023-03-01T01:07:49;3.38;;;0.60;;
29402;SDS011;16382;59.942;30.472;2023-03-01T01:10:17;2.25;;;0.77;;
29402;SDS011;16382;59.942;30.472;2023-03-01T01:12:45;4.25;;;0.80;;
29402;SDS011;16382;59.942;30.472;2023-03-01T01:15:13;2.47;;;0.98;;
29402;SDS011;16382;59.942;30.472;2023-03-01T01:17:41;5.93;;;1.00;;
29402;SDS011;16382;59.942;30.472;2023-03-01T01:20:11;4.38;;;0.70;;
29402;SDS011;16382;59.942;30.472;2023-03-01T01:22:39;3.67;;;0.60;;
29402;SDS011;16382;59.942;30.472;2023-03-01T01:25:06;4.40;;;0.65;;
29402;SDS011;16382;59.942;30.472;2023-03-01T01:27:36;5.78;;;0.95;;
29402;SDS011;16382;59.942;30.472;2023-03-01T01:30:04;2.10;;;0.65;;
29402;SDS011;16382;59.942;30.472;2023-03-01T01:32:32;4.25;;;0.60;;
29402;SDS011;16382;59.942;30.472;2023-03-01T01:35:00;2.15;;;0.90;;
29402;SDS011;16382;59.942;30.472;2023-03-01T01:37:30;3.03;;;0.55;;
29402;SDS011;16382;59.942;30.472;2023-03-01T01:39:58;2.53;;;0.40;;
29402;SDS011;16382;59.942;30.472;2023-03-01T01:42:29;2.25;;;0.60;;
29402;SDS011;16382;59.942;30.472;2023-03-01T01:45:24;3.55;;;0.75;;
29402;SDS011;16382;59.942;30.472;2023-03-01T01:47:57;2.78;;;0.52;;
29402;SDS011;16382;59.942;30.472;2023-03-01T01:50:28;1.80;;;0.80;;
29402;SDS011;16382;59.942;30.472;2023-03-01T01:53:05;1.30;;;0.57;;
29402;SDS011;16382;59.942;30.472;2023-03-01T01:55:36;4.10;;;1.45;;
29402;SDS011;16382;59.942;30.472;2023-03-01T01:58:09;4.82;;;1.30;;
29402;SDS011;16382;59.942;30.472;2023-03-01T02:00:39;4.72;;;0.63;;
29402;SDS011;16382;59.942;30.472;2023-03-01T02:03:08;2.85;;;0.40;;
29402;SDS011;16382;59.942;30.472;2023-03-01T02:05:39;7.63;;;0.63;;
29402;SDS011;16382;59.942;30.472;2023-03-01T02:08:13;2.38;;;0.52;;
29402;SDS011;16382;59.942;30.472;2023-03-01T02:10:43;1.40;;;0.60;;
29402;SDS011;16382;59.942;30.472;2023-03-01T02:13:12;4.45;;;0.90;;
29402;SDS011;16382;59.942;30.472;2023-03-01T02:15:40;3.88;;;0.47;;
29402;SDS011;16382;59.942;30.472;2023-03-01T02:18:09;3.53;;;0.52;;
29402;SDS011;16382;59.942;30.472;2023-03-01T02:20:40;4.78;;;0.75;;
29402;SDS011;16382;59.942;30.472;2023-03-01T02:23:23;2.47;;;0.70;;
29402;SDS011;16382;59.942;30.472;2023-03-01T02:25:52;4.63;;;1.13;;
29402;SDS011;16382;59.942;30.472;2023-03-01T02:28:27;1.83;;;0.50;;
29402;SDS011;16382;59.942;30.472;2023-03-01T02:30:57;4.78;;;0.90;;
29402;SDS011;16382;59.942;30.472;2023-03-01T02:33:42;3.65;;;0.50;;
29402;SDS011;16382;59.942;30.472;2023-03-01T02:36:15;2.70;;;0.80;;
29402;SDS011;16382;59.942;30.472;2023-03-01T02:38:46;3.85;;;0.70;;
29402;SDS011;16382;59.942;30.472;2023-03-01T02:41:15;3.90;;;0.65;;
29402;SDS011;16382;59.942;30.472;2023-03-01T02:43:46;2.15;;;0.98;;
29402;SDS011;16382;59.942;30.472;2023-03-01T02:46:14;2.47;;;1.15;;
29402;SDS011;16382;59.942;30.472;2023-03-01T02:48:46;4.78;;;0.98;;
29402;SDS011;16382;59.942;30.472;2023-03-01T02:51:19;3.00;;;0.60;;
29402;SDS011;16382;59.942;30.472;2023-03-01T02:54:01;1.65;;;0.65;;
29402;SDS011;16382;59.942;30.472;2023-03-01T02:56:39;5.32;;;0.75;;
29402;SDS011;16382;59.942;30.472;2023-03-01T02:59:09;3.10;;;0.70;;
29402;SDS011;16382;59.942;30.472;2023-03-01T03:01:38;0.98;;;0.50;;
29402;SDS011;16382;59.942;30.472;2023-03-01T03:04:07;2.22;;;0.70;;
29402;SDS011;16382;59.942;30.472;2023-03-01T03:06:37;1.50;;;0.60;;
29402;SDS011;16382;59.942;30.472;2023-03-01T03:09:05;3.03;;;0.90;;
29402;SDS011;16382;59.942;30.472;2023-03-01T03:11:33;4.15;;;1.10;;
29402;SDS011;16382;59.942;30.472;2023-03-01T03:14:02;5.38;;;1.40;;
29402;SDS011;16382;59.942;30.472;2023-03-01T03:16:31;4.72;;;0.90;;
29402;SDS011;16382;59.942;30.472;2023-03-01T03:18:58;2.42;;;0.90;;
29402;SDS011;16382;59.942;30.472;2023-03-01T03:21:30;4.13;;;0.70;;
29402;SDS011;16382;59.942;30.472;2023-03-01T03:23:58;4.13;;;0.82;;
29402;SDS011;16382;59.942;30.472;2023-03-01T03:26:25;3.55;;;1.50;;
29402;SDS011;16382;59.942;30.472;2023-03-01T03:28:53;2.88;;;0.82;;
29402;SDS011;16382;59.942;30.472;2023-03-01T03:31:20;3.30;;;0.82;;
29402;SDS011;16382;59.942;30.472;2023-03-01T03:33:49;3.75;;;1.13;;
29402;SDS011;16382;59.942;30.472;2023-03-01T03:36:17;7.40;;;1.30;;
29402;SDS011;16382;59.942;30.472;2023-03-01T03:38:46;4.28;;;1.23;;
29402;SDS011;16382;59.942;30.472;2023-03-01T03:41:14;3.08;;;0.73;;
29402;SDS011;16382;59.942;30.472;2023-03-01T03:43:43;3.25;;;1.92;;
29402;SDS011;16382;59.942;30.472;2023-03-01T03:46:11;5.47;;;0.88;;
29402;SDS011;16382;59.942;30.472;2023-03-01T03:48:40;2.25;;;1.17;;
29402;SDS011;16382;59.942;30.472;2023-03-01T03:51:11;5.30;;;1.10;;
29402;SDS011;16382;59.942;30.472;2023-03-01T03:53:40;3.97;;;1.52;;
29402;SDS011;16382;59.942;30.472;2023-03-01T03:56:08;2.28;;;0.90;;
29402;SDS011;16382;59.942;30.472;2023-03-01T03:58:35;4.47;;;1.05;;
29402;SDS011;16382;59.942;30.472;2023-03-01T04:01:03;6.60;;;1.13;;
29402;SDS011;16382;59.942;30.472;2023-03-01T04:03:31;2.80;;;0.88;;
29402;SDS011;16382;59.942;30.472;2023-03-01T04:06:00;2.08;;;0.60;;
29402;SDS011;16382;59.942;30.472;2023-03-01T04:08:30;3.45;;;0.90;;
29402;SDS011;16382;59.942;30.472;2023-03-01T04:10:59;4.78;;;0.70;;
29402;SDS011;16382;59.942;30.472;2023-03-01T04:13:49;4.70;;;1.52;;
29402;SDS011;16382;59.942;30.472;2023-03-01T04:16:19;11.07;;;1.30;;
29402;SDS011;16382;59.942;30.472;2023-03-01T04:18:46;3.30;;;0.82;;
29402;SDS011;16382;59.942;30.472;2023-03-01T04:21:14;3.35;;;0.75;;
29402;SDS011;16382;59.942;30.472;2023-03-01T04:23:43;4.95;;;1.10;;
29402;SDS011;16382;59.942;30.472;2023-03-01T04:26:11;3.30;;;1.00;;
29402;SDS011;16382;59.942;30.472;2023-03-01T04:28:39;6.93;;;1.05;;
29402;SDS011;16382;59.942;30.472;2023-03-01T04:31:12;6.00;;;2.40;;
29402;SDS011;16382;59.942;30.472;2023-03-01T04:33:44;6.28;;;1.20;;
29402;SDS011;16382;59.942;30.472;2023-03-01T04:36:14;5.93;;;0.95;;
29402;SDS011;16382;59.942;30.472;2023-03-01T04:38:45;3.88;;;0.80;;
29402;SDS011;16382;59.942;30.472;2023-03-01T04:41:14;5.65;;;1.10;;
29402;SDS011;16382;59.942;30.472;2023-03-01T04:43:48;5.07;;;1.42;;
29402;SDS011;16382;59.942;30.472;2023-03-01T04:46:16;3.50;;;1.00;;
29402;SDS011;16382;59.942;30.472;2023-03-01T04:48:47;6.07;;;1.65;;
29402;SDS011;16382;59.942;30.472;2023-03-01T04:51:15;3.65;;;0.80;;
29402;SDS011;16382;59.942;30.472;2023-03-01T04:53:45;5.65;;;1.05;;
29402;SDS011;16382;59.942;30.472;2023-03-01T04:56:12;5.20;;;2.22;;
29402;SDS011;16382;59.942;30.472;2023-03-01T04:58:40;4.32;;;1.25;;
29402;SDS011;16382;59.942;30.472;2023-03-01T05:01:09;5.03;;;1.33;;
29402;SDS011;16382;59.942;30.472;2023-03-01T05:03:42;4.45;;;1.15;;
29402;SDS011;16382;59.942;30.472;2023-03-01T05:06:10;2.97;;;0.90;;
29402;SDS011;16382;59.942;30.472;2023-03-01T05:08:38;4.88;;;1.52;;
29402;SDS011;16382;59.942;30.472;2023-03-01T05:11:08;2.58;;;0.93;;
29402;SDS011;16382;59.942;30.472;2023-03-01T05:13:37;2.78;;;0.88;;
29402;SDS011;16382;59.942;30.472;2023-03-01T05:16:06;3.20;;;1.23;;
29402;SDS011;16382;59.942;30.472;2023-03-01T05:18:36;5.03;;;0.88;;
29402;SDS011;16382;59.942;30.472;2023-03-01T05:21:05;8.70;;;1.15;;
29402;SDS011;16382;59.942;30.472;2023-03-01T05:23:35;2.13;;;0.60;;
29402;SDS011;16382;59.942;30.472;2023-03-01T05:26:03;4.60;;;1.35;;
29402;SDS011;16382;59.942;30.472;2023-03-01T05:28:34;3.03;;;1.08;;
29402;SDS011;16382;59.942;30.472;2023-03-01T05:31:03;2.67;;;1.10;;
29402;SDS011;16382;59.942;30.472;2023-03-01T05:33:35;5.57;;;0.85;;
29402;SDS011;16382;59.942;30.472;2023-03-01T05:36:04;8.80;;;1.45;;
29402;SDS011;16382;59.942;30.472;2023-03-01T05:38:32;3.22;;;1.52;;
29402;SDS011;16382;59.942;30.472;2023-03-01T05:41:00;4.18;;;0.95;;
29402;SDS011;16382;59.942;30.472;2023-03-01T05:43:29;5.45;;;1.25;;
29402;SDS011;16382;59.942;30.472;2023-03-01T05:46:00;4.63;;;1.15;;
29402;SDS011;16382;59.942;30.472;2023-03-01T05:48:28;5.45;;;2.08;;
29402;SDS011;16382;59.942;30.472;2023-03-01T05:50:58;2.45;;;1.05;;
29402;SDS011;16382;59.942;30.472;2023-03-01T05:53:26;2.53;;;0.93;;
29402;SDS011;16382;59.942;30.472;2023-03-01T05:55:54;4.13;;;1.23;;
29402;SDS011;16382;59.942;30.472;2023-03-01T05:58:22;6.35;;;1.08;;
29402;SDS011;16382;59.942;30.472;2023-03-01T06:00:50;3.88;;;1.00;;
29402;SDS011;16382;59.942;30.472;2023-03-01T06:03:19;1.73;;;0.70;;
29402;SDS011;16382;59.942;30.472;2023-03-01T06:05:46;2.60;;;1.00;;
29402;SDS011;16382;59.942;30.472;2023-03-01T06:08:14;3.38;;;1.27;;
29402;SDS011;16382;59.942;30.472;2023-03-01T06:10:41;7.13;;;0.98;;
29402;SDS011;16382;59.942;30.472;2023-03-01T06:13:09;5.30;;;1.35;;
29402;SDS011;16382;59.942;30.472;2023-03-01T06:15:36;5.20;;;1.05;;
29402;SDS011;16382;59.942;30.472;2023-03-01T06:18:03;7.75;;;1.38;;
29402;SDS011;16382;59.942;30.472;2023-03-01T06:20:32;5.40;;;0.90;;
29402;SDS011;16382;59.942;30.472;2023-03-01T06:23:00;6.05;;;1.20;;
29402;SDS011;16382;59.942;30.472;2023-03-01T06:25:28;6.03;;;0.70;;
29402;SDS011;16382;59.942;30.472;2023-03-01T06:27:55;1.63;;;0.90;;
29402;SDS011;16382;59.942;30.472;2023-03-01T06:30:23;2.88;;;1.13;;
29402;SDS011;16382;59.942;30.472;2023-03-01T06:32:52;2.67;;;1.25;;
29402;SDS011;16382;59.942;30.472;2023-03-01T06:35:26;2.92;;;0.88;;
29402;SDS011;16382;59.942;30.472;2023-03-01T06:37:57;2.53;;;0.95;;
29402;SDS011;16382;59.942;30.472;2023-03-01T06:40:26;6.15;;;1.08;;
29402;SDS011;16382;59.942;30.472;2023-03-01T06:42:54;6.15;;;1.55;;
29402;SDS011;16382;59.942;30.472;2023-03-01T06:45:22;2.72;;;1.42;;
29402;SDS011;16382;59.942;30.472;2023-03-01T06:47:50;1.67;;;0.85;;
29402;SDS011;16382;59.942;30.472;2023-03-01T06:50:20;3.35;;;0.88;;
29402;SDS011;16382;59.942;30.472;2023-03-01T06:52:47;6.90;;;1.15;;
29402;SDS011;16382;59.942;30.472;2023-03-01T06:55:23;2.95;;;1.40;;
29402;SDS011;16382;59.942;30.472;2023-03-01T06:57:53;4.25;;;1.40;;
29402;SDS011;16382;59.942;30.472;2023-03-01T07:00:22;4.25;;;1.67;;
29402;SDS011;16382;59.942;30.472;2023-03-01T07:02:50;4.38;;;1.30;;
29402;SDS011;16382;59.942;30.472;2023-03-01T07:05:18;4.85;;;1.27;;
29402;SDS011;16382;59.942;30.472;2023-03-01T07:07:46;5.15;;;1.20;;
29402;SDS011;16382;59.942;30.472;2023-03-01T07:10:15;2.67;;;0.90;;
29402;SDS011;16382;59.942;30.472;2023-03-01T07:12:42;6.28;;;1.30;;
29402;SDS011;16382;59.942;30.472;2023-03-01T07:15:11;7.28;;;1.67;;
29402;SDS011;16382;59.942;30.472;2023-03-01T07:17:40;7.10;;;1.13;;
29402;SDS011;16382;59.942;30.472;2023-03-01T07:20:10;5.68;;;1.10;;
29402;SDS011;16382;59.942;30.472;2023-03-01T07:22:39;4.95;;;1.23;;
29402;SDS011;16382;59.942;30.472;2023-03-01T07:25:08;5.90;;;1.52;;
29402;SDS011;16382;59.942;30.472;2023-03-01T07:27:36;2.67;;;1.05;;
29402;SDS011;16382;59.942;30.472;2023-03-01T07:30:04;4.78;;;1.27;;
29402;SDS011;16382;59.942;30.472;2023-03-01T07:32:33;8.40;;;1.40;;
29402;SDS011;16382;59.942;30.472;2023-03-01T07:35:01;4.82;;;1.45;;
29402;SDS011;16382;59.942;30.472;2023-03-01T07:37:28;3.40;;;1.10;;
29402;SDS011;16382;59.942;30.472;2023-03-01T07:39:56;7.28;;;1.05;;
29402;SDS011;16382;59.942;30.472;2023-03-01T07:42:26;4.72;;;1.08;;
29402;SDS011;16382;59.942;30.472;2023-03-01T07:44:55;4.18;;;1.23;;
29402;SDS011;16382;59.942;30.472;2023-03-01T07:47:23;6.93;;;1.55;;
29402;SDS011;16382;59.942;30.472;2023-03-01T07:49:50;6.63;;;1.90;;
29402;SDS011;16382;59.942;30.472;2023-03-01T07:52:18;9.02;;;1.63;;
29402;SDS011;16382;59.942;30.472;2023-03-01T07:54:45;4.18;;;1.23;;
29402;SDS011;16382;59.942;30.472;2023-03-01T07:57:13;12.35;;;1.40;;
29402;SDS011;16382;59.942;30.472;2023-03-01T07:59:40;9.88;;;1.58;;
29402;SDS011;16382;59.942;30.472;2023-03-01T08:02:09;20.85;;;2.65;;
29402;SDS011;16382;59.942;30.472;2023-03-01T08:04:37;8.90;;;1.60;;
29402;SDS011;16382;59.942;30.472;2023-03-01T08:07:05;6.88;;;1.58;;
29402;SDS011;16382;59.942;30.472;2023-03-01T08:09:34;5.97;;;1.88;;
29402;SDS011;16382;59.942;30.472;2023-03-01T08:12:02;5.63;;;1.60;;
29402;SDS011;16382;59.942;30.472;2023-03-01T08:14:30;10.68;;;2.13;;
29402;SDS011;16382;59.942;30.472;2023-03-01T08:16:58;11.05;;;1.88;;
29402;SDS011;16382;59.942;30.472;2023-03-01T08:19:29;5.15;;;1.85;;
29402;SDS011;16382;59.942;30.472;2023-03-01T08:21:58;7.50;;;2.40;;
29402;SDS011;16382;59.942;30.472;2023-03-01T08:24:25;13.73;;;2.00;;
29402;SDS011;16382;59.942;30.472;2023-03-01T08:26:53;8.23;;;2.08;;
29402;SDS011;16382;59.942;30.472;2023-03-01T08:29:21;9.02;;;1.52;;
29402;SDS011;16382;59.942;30.472;2023-03-01T08:31:49;9.55;;;1.98;;
29402;SDS011;16382;59.942;30.472;2023-03-01T08:34:17;8.68;;;2.40;;
29402;SDS011;16382;59.942;30.472;2023-03-01T08:36:46;5.32;;;1.80;;
29402;SDS011;16382;59.942;30.472;2023-03-01T08:39:16;10.68;;;1.60;;
29402;SDS011;16382;59.942;30.472;2023-03-01T08:41:45;17.33;;;2.92;;
29402;SDS011;16382;59.942;30.472;2023-03-01T08:44:14;9.05;;;1.77;;
29402;SDS011;16382;59.942;30.472;2023-03-01T08:46:43;16.92;;;2.53;;
29402;SDS011;16382;59.942;30.472;2023-03-01T08:49:16;13.02;;;2.40;;
29402;SDS011;16382;59.942;30.472;2023-03-01T08:51:46;11.85;;;2.00;;
29402;SDS011;16382;59.942;30.472;2023-03-01T08:54:15;13.52;;;2.38;;
29402;SDS011;16382;59.942;30.472;2023-03-01T08:56:45;9.00;;;2.08;;
29402;SDS011;16382;59.942;30.472;2023-03-01T08:59:16;8.32;;;1.77;;
29402;SDS011;16382;59.942;30.472;2023-03-01T09:01:44;11.85;;;2.70;;
29402;SDS011;16382;59.942;30.472;2023-03-01T09:04:12;18.38;;;2.92;;
29402;SDS011;16382;59.942;30.472;2023-03-01T09:06:41;15.73;;;2.90;;
29402;SDS011;16382;59.942;30.472;2023-03-01T09:09:12;15.52;;;4.93;;
29402;SDS011;16382;59.942;30.472;2023-03-01T09:11:42;8.45;;;2.42;;
29402;SDS011;16382;59.942;30.472;2023-03-01T09:14:11;8.63;;;2.13;;
29402;SDS011;16382;59.942;30.472;2023-03-01T09:16:39;5.55;;;1.60;;
29402;SDS011;16382;59.942;30.472;2023-03-01T09:19:06;12.70;;;2.35;;
29402;SDS011;16382;59.942;30.472;2023-03-01T09:21:33;14.45;;;2.63;;
29402;SDS011;16382;59.942;30.472;2023-03-01T09:24:01;9.20;;;1.95;;
29402;SDS011;16382;59.942;30.472;2023-03-01T09:26:30;9.20;;;1.75;;
29402;SDS011;16382;59.942;30.472;2023-03-01T09:28:57;12.60;;;1.70;;
29402;SDS011;16382;59.942;30.472;2023-03-01T09:31:24;12.13;;;2.03;;
29402;SDS011;16382;59.942;30.472;2023-03-01T09:33:52;9.27;;;1.98;;
29402;SDS011;16382;59.942;30.472;2023-03-01T09:36:21;8.88;;;1.60;;
29402;SDS011;16382;59.942;30.472;2023-03-01T09:38:51;16.08;;;3.28;;
29402;SDS011;16382;59.942;30.472;2023-03-01T09:41:24;9.60;;;2.88;;
29402;SDS011;16382;59.942;30.472;2023-03-01T09:44:06;15.77;;;2.15;;
29402;SDS011;16382;59.942;30.472;2023-03-01T09:46:43;7.57;;;1.63;;
29402;SDS011;16382;59.942;30.472;2023-03-01T09:49:12;6.53;;;1.30;;
29402;SDS011;16382;59.942;30.472;2023-03-01T09:51:47;5.32;;;1.98;;
29402;SDS011;16382;59.942;30.472;2023-03-01T09:54:23;7.97;;;1.42;;
29402;SDS011;16382;59.942;30.472;2023-03-01T09:56:59;9.52;;;1.20;;
29402;SDS011;16382;59.942;30.472;2023-03-01T09:59:39;5.63;;;1.80;;
29402;SDS011;16382;59.942;30.472;2023-03-01T10:02:24;3.28;;;1.40;;
29402;SDS011;16382;59.942;30.472;2023-03-01T10:05:03;4.65;;;1.10;;
29402;SDS011;16382;59.942;30.472;2023-03-01T10:07:46;4.90;;;1.00;;
29402;SDS011;16382;59.942;30.472;2023-03-01T10:10:23;3.80;;;0.80;;
29402;SDS011;16382;59.942;30.472;2023-03-01T10:12:56;11.40;;;1.48;;
29402;SDS011;16382;59.942;30.472;2023-03-01T10:15:25;7.60;;;0.80;;
29402;SDS011;16382;59.942;30.472;2023-03-01T10:18:01;9.50;;;1.80;;
29402;SDS011;16382;59.942;30.472;2023-03-01T10:20:36;4.15;;;1.08;;
29402;SDS011;16382;59.942;30.472;2023-03-01T10:23:11;5.15;;;0.98;;
29402;SDS011;16382;59.942;30.472;2023-03-01T10:25:43;8.75;;;1.08;;
29402;SDS011;16382;59.942;30.472;2023-03-01T10:28:26;3.75;;;1.15;;
29402;SDS011;16382;59.942;30.472;2023-03-01T10:31:05;4.65;;;1.48;;
29402;SDS011;16382;59.942;30.472;2023-03-01T10:33:40;4.57;;;1.33;;
29402;SDS011;16382;59.942;30.472;2023-03-01T10:36:08;9.13;;;1.30;;
29402;SDS011;16382;59.942;30.472;2023-03-01T10:38:47;4.53;;;1.55;;
29402;SDS011;16382;59.942;30.472;2023-03-01T10:41:19;4.45;;;0.85;;
29402;SDS011;16382;59.942;30.472;2023-03-01T10:43:51;3.08;;;1.20;;
29402;SDS011;16382;59.942;30.472;2023-03-01T10:46:25;2.15;;;0.80;;
29402;SDS011;16382;59.942;30.472;2023-03-01T10:49:05;8.30;;;1.40;;
29402;SDS011;16382;59.942;30.472;2023-03-01T10:51:40;7.40;;;0.98;;
29402;SDS011;16382;59.942;30.472;2023-03-01T10:54:15;2.38;;;0.82;;
29402;SDS011;16382;59.942;30.472;2023-03-01T10:56:46;7.25;;;1.20;;
29402;SDS011;16382;59.942;30.472;2023-03-01T10:59:21;7.15;;;1.10;;
29402;SDS011;16382;59.942;30.472;2023-03-01T11:02:04;7.65;;;1.17;;
29402;SDS011;16382;59.942;30.472;2023-03-01T11:07:29;6.38;;;1.00;;
29402;SDS011;16382;59.942;30.472;2023-03-01T11:09:57;3.45;;;0.70;;
29402;SDS011;16382;59.942;30.472;2023-03-01T11:12:24;11.10;;;2.08;;
29402;SDS011;16382;59.942;30.472;2023-03-01T11:14:56;8.25;;;1.30;;
29402;SDS011;16382;59.942;30.472;2023-03-01T11:17:25;7.43;;;1.77;;
29402;SDS011;16382;59.942;30.472;2023-03-01T11:20:04;5.22;;;0.88;;
29402;SDS011;16382;59.942;30.472;2023-03-01T11:22:47;9.65;;;2.15;;
29402;SDS011;16382;59.942;30.472;2023-03-01T11:25:17;12.38;;;2.03;;
29402;SDS011;16382;59.942;30.472;2023-03-01T11:27:51;5.68;;;1.67;;
29402;SDS011;16382;59.942;30.472;2023-03-01T11:30:22;9.00;;;1.60;;
29402;SDS011;16382;59.942;30.472;2023-03-01T11:32:59;8.75;;;1.33;;
29402;SDS011;16382;59.942;30.472;2023-03-01T11:35:41;4.47;;;1.40;;
29402;SDS011;16382;59.942;30.472;2023-03-01T11:38:18;6.95;;;1.67;;
29402;SDS011;16382;59.942;30.472;2023-03-01T11:40:50;3.10;;;1.42;;
29402;SDS011;16382;59.942;30.472;2023-03-01T11:43:29;6.57;;;1.10;;
29402;SDS011;16382;59.942;30.472;2023-03-01T11:49:15;10.65;;;3.60;;
29402;SDS011;16382;59.942;30.472;2023-03-01T11:52:17;20.50;;;10.30;;
29402;SDS011;16382;59.942;30.472;2023-03-01T11:54:57;12.60;;;6.30;;
29402;SDS011;16382;59.942;30.472;2023-03-01T11:57:48;8.40;;;3.40;;
29402;SDS011;16382;59.942;30.472;2023-03-01T12:00:53;11.77;;;2.03;;
29402;SDS011;16382;59.942;30.472;2023-03-01T12:03:49;7.05;;;1.45;;
29402;SDS011;16382;59.942;30.472;2023-03-01T12:06:33;4.32;;;1.00;;
29402;SDS011;16382;59.942;30.472;2023-03-01T12:09:16;9.15;;;1.75;;
29402;SDS011;16382;59.942;30.472;2023-03-01T12:12:08;10.48;;;1.35;;
29402;SDS011;16382;59.942;30.472;2023-03-01T12:15:04;9.68;;;2.80;;
29402;SDS011;16382;59.942;30.472;2023-03-01T12:17:54;8.50;;;1.70;;
29402;SDS011;16382;59.942;30.472;2023-03-01T12:20:41;3.22;;;1.48;;
29402;SDS011;16382;59.942;30.472;2023-03-01T12:23:32;3.25;;;1.58;;
29402;SDS011;16382;59.942;30.472;2023-03-01T12:26:19;6.30;;;1.27;;
29402;SDS011;16382;59.942;30.472;2023-03-01T12:29:01;3.40;;;2.10;;
29402;SDS011;16382;59.942;30.472;2023-03-01T12:31:51;4.63;;;1.23;;
29402;SDS011;16382;59.942;30.472;2023-03-01T12:35:10;5.45;;;1.60;;
29402;SDS011;16382;59.942;30.472;2023-03-01T12:38:04;5.18;;;1.33;;
29402;SDS011;16382;59.942;30.472;2023-03-01T12:40:46;4.57;;;1.85;;
29402;SDS011;16382;59.942;30.472;2023-03-01T12:43:46;5.93;;;1.70;;
29402;SDS011;16382;59.942;30.472;2023-03-01T12:46:28;7.05;;;1.58;;
29402;SDS011;16382;59.942;30.472;2023-03-01T12:49:12;7.50;;;1.98;;
29402;SDS011;16382;59.942;30.472;2023-03-01T12:51:43;12.17;;;1.53;;
29402;SDS011;16382;59.942;30.472;2023-03-01T12:54:20;13.02;;;5.68;;
29402;SDS011;16382;59.942;30.472;2023-03-01T12:56:54;11.00;;;4.90;;
29402;SDS011;16382;59.942;30.472;2023-03-01T12:59:25;8.27;;;2.92;;
29402;SDS011;16382;59.942;30.472;2023-03-01T13:02:03;6.57;;;2.67;;
29402;SDS011;16382;59.942;30.472;2023-03-01T13:04:50;7.13;;;2.28;;
29402;SDS011;16382;59.942;30.472;2023-03-01T13:07:30;10.40;;;4.22;;
29402;SDS011;16382;59.942;30.472;2023-03-01T13:10:17;9.38;;;3.35;;
29402;SDS011;16382;59.942;30.472;2023-03-01T13:12:52;6.32;;;2.28;;
29402;SDS011;16382;59.942;30.472;2023-03-01T13:15:30;8.82;;;4.30;;
29402;SDS011;16382;59.942;30.472;2023-03-01T13:18:01;7.35;;;1.95;;
29402;SDS011;16382;59.942;30.472;2023-03-01T13:20:34;5.30;;;2.60;;
29402;SDS011;16382;59.942;30.472;2023-03-01T13:23:13;4.32;;;1.80;;
29402;SDS011;16382;59.942;30.472;2023-03-01T13:26:07;2.72;;;1.30;;
29402;SDS011;16382;59.942;30.472;2023-03-01T13:28:41;12.73;;;1.70;;
29402;SDS011;16382;59.942;30.472;2023-03-01T13:34:49;3.95;;;1.48;;
29402;SDS011;16382;59.942;30.472;2023-03-01T13:37:20;5.00;;;1.77;;
29402;SDS011;16382;59.942;30.472;2023-03-01T13:39:55;9.02;;;1.70;;
29402;SDS011;16382;59.942;30.472;2023-03-01T13:42:37;4.90;;;1.90;;
29402;SDS011;16382;59.942;30.472;2023-03-01T13:45:21;2.35;;;1.42;;
29402;SDS011;16382;59.942;30.472;2023-03-01T13:48:00;5.75;;;1.80;;
29402;SDS011;16382;59.942;30.472;2023-03-01T13:50:43;4.78;;;1.33;;
29402;SDS011;16382;59.942;30.472;2023-03-01T13:53:17;4.00;;;1.13;;
29402;SDS011;16382;59.942;30.472;2023-03-01T13:55:48;7.10;;;2.33;;
29402;SDS011;16382;59.942;30.472;2023-03-01T13:58:25;4.57;;;1.55;;
29402;SDS011;16382;59.942;30.472;2023-03-01T14:00:55;2.95;;;1.40;;
29402;SDS011;16382;59.942;30.472;2023-03-01T14:03:27;3.60;;;1.70;;
29402;SDS011;16382;59.942;30.472;2023-03-01T14:05:58;4.82;;;1.73;;
29402;SDS011;16382;59.942;30.472;2023-03-01T14:08:35;3.60;;;1.40;;
29402;SDS011;16382;59.942;30.472;2023-03-01T14:14:30;2.40;;;1.40;;
29402;SDS011;16382;59.942;30.472;2023-03-01T14:17:24;7.10;;;1.55;;
29402;SDS011;16382;59.942;30.472;2023-03-01T14:20:17;2.78;;;1.45;;
29402;SDS011;16382;59.942;30.472;2023-03-01T14:22:52;5.70;;;1.33;;
29402;SDS011;16382;59.942;30.472;2023-03-01T14:25:28;9.02;;;1.85;;
29402;SDS011;16382;59.942;30.472;2023-03-01T14:27:59;4.80;;;1.38;;
29402;SDS011;16382;59.942;30.472;2023-03-01T14:30:41;4.53;;;1.48;;
29402;SDS011;16382;59.942;30.472;2023-03-01T14:33:19;4.90;;;2.03;;
29402;SDS011;16382;59.942;30.472;2023-03-01T14:35:54;8.07;;;1.70;;
29402;SDS011;16382;59.942;30.472;2023-03-01T14:38:29;4.88;;;2.25;;
29402;SDS011;16382;59.942;30.472;2023-03-01T14:41:00;2.55;;;1.10;;
29402;SDS011;16382;59.942;30.472;2023-03-01T14:43:31;3.92;;;1.10;;
29402;SDS011;16382;59.942;30.472;2023-03-01T14:46:01;3.40;;;0.90;;
29402;SDS011;16382;59.942;30.472;2023-03-01T14:48:29;9.48;;;1.73;;
29402;SDS011;16382;59.942;30.472;2023-03-01T14:50:58;4.00;;;1.17;;
29402;SDS011;16382;59.942;30.472;2023-03-01T14:53:26;3.42;;;1.23;;
29402;SDS011;16382;59.942;30.472;2023-03-01T14:55:59;1.83;;;1.40;;
29402;SDS011;16382;59.942;30.472;2023-03-01T14:58:31;2.65;;;1.58;;
29402;SDS011;16382;59.942;30.472;2023-03-01T15:01:02;4.93;;;2.03;;
29402;SDS011;16382;59.942;30.472;2023-03-01T15:03:32;2.05;;;1.38;;
29402;SDS011;16382;59.942;30.472;2023-03-01T15:06:03;2.63;;;1.05;;
29402;SDS011;16382;59.942;30.472;2023-03-01T15:08:35;3.88;;;1.13;;
29402;SDS011;16382;59.942;30.472;2023-03-01T15:11:05;5.90;;;1.08;;
29402;SDS011;16382;59.942;30.472;2023-03-01T15:13:48;5.78;;;1.15;;
29402;SDS011;16382;59.942;30.472;2023-03-01T15:16:18;3.17;;;1.02;;
29402;SDS011;16382;59.942;30.472;2023-03-01T15:18:50;5.13;;;1.23;;